createdAt,value
2022-11-27T00:01:12.544Z,-0.30
2022-11-27T00:03:41.655Z,-0.30
2022-11-27T00:06:13.271Z,-0.30
2022-11-27T00:08:40.410Z,-0.30
2022-11-27T00:11:13.659Z,-0.30
2022-11-27T00:13:40.698Z,-0.40
2022-11-27T00:16:09.184Z,-0.40
2022-11-27T00:18:36.810Z,-0.40
2022-11-27T00:21:11.329Z,-0.20
2022-11-27T00:23:38.716Z,-0.30
2022-11-27T00:26:06.594Z,-0.30
2022-11-27T00:28:33.798Z,-0.40
2022-11-27T00:31:02.199Z,-0.40
2022-11-27T00:33:29.491Z,-0.40
2022-11-27T00:35:56.485Z,-0.30
2022-11-27T00:38:23.533Z,-0.30
2022-11-27T00:40:50.613Z,-0.40
2022-11-27T00:43:17.597Z,-0.50
2022-11-27T00:45:49.738Z,-0.60
2022-11-27T00:48:16.866Z,-0.50
2022-11-27T00:50:43.833Z,-0.50
2022-11-27T00:53:10.801Z,-0.50
2022-11-27T00:55:37.863Z,-0.50
2022-11-27T00:58:04.833Z,-0.50
2022-11-27T01:00:31.841Z,-0.50
2022-11-27T01:02:58.837Z,-0.60
2022-11-27T01:05:25.832Z,-0.50
2022-11-27T01:07:52.847Z,-0.40
2022-11-27T01:10:19.885Z,-0.40
2022-11-27T01:12:50.066Z,-0.50
2022-11-27T01:15:17.042Z,-0.40
2022-11-27T01:17:43.965Z,-0.30
2022-11-27T01:20:11.460Z,-0.30
2022-11-27T01:22:38.450Z,-0.30
2022-11-27T01:25:05.901Z,-0.40
2022-11-27T01:27:32.851Z,-0.40
2022-11-27T01:30:00.386Z,-0.40
2022-11-27T01:32:27.543Z,-0.20
2022-11-27T01:34:54.682Z,-0.20
2022-11-27T01:37:21.625Z,-0.30
2022-11-27T01:39:48.764Z,-0.30
2022-11-27T01:42:15.676Z,-0.30
2022-11-27T01:44:52.702Z,-0.40
2022-11-27T01:47:34.129Z,-0.50
2022-11-27T01:50:12.588Z,-0.60
2022-11-27T01:52:44.288Z,-0.70
2022-11-27T01:55:37.918Z,-0.80
2022-11-27T01:58:10.998Z,-0.70
2022-11-27T02:00:38.745Z,-0.70
2022-11-27T02:03:05.836Z,-0.80
2022-11-27T02:05:33.576Z,-0.80
2022-11-27T02:08:06.451Z,-0.90
2022-11-27T02:10:51.905Z,-0.90
2022-11-27T02:13:27.727Z,-0.90
2022-11-27T02:16:00.647Z,-0.80
2022-11-27T02:18:42.537Z,-0.80
2022-11-27T02:21:35.381Z,-0.80
2022-11-27T02:24:31.614Z,-0.70
2022-11-27T02:27:09.746Z,-0.70
2022-11-27T02:29:39.833Z,-0.80
2022-11-27T02:32:09.597Z,-0.90
2022-11-27T02:34:45.246Z,-1.00
2022-11-27T02:37:23.990Z,-1.00
2022-11-27T02:40:11.989Z,-1.00
2022-11-27T02:42:53.991Z,-1.10
2022-11-27T02:45:32.444Z,-1.10
2022-11-27T02:48:00.226Z,-1.30
2022-11-27T02:50:29.981Z,-1.30
2022-11-27T02:53:01.849Z,-1.40
2022-11-27T02:55:33.248Z,-1.40
2022-11-27T02:58:03.129Z,-1.40
2022-11-27T03:00:31.195Z,-1.50
2022-11-27T03:03:01.473Z,-1.60
2022-11-27T03:05:32.527Z,-1.60
2022-11-27T03:08:07.174Z,-1.60
2022-11-27T03:10:54.158Z,-1.70
2022-11-27T03:13:21.512Z,-1.60
2022-11-27T03:15:53.955Z,-1.60
2022-11-27T03:18:32.309Z,-1.60
2022-11-27T03:21:09.477Z,-1.70
2022-11-27T03:23:36.439Z,-1.70
2022-11-27T03:26:03.446Z,-1.80
2022-11-27T03:28:31.194Z,-1.80
2022-11-27T03:30:58.392Z,-1.80
2022-11-27T03:33:25.488Z,-1.90
2022-11-27T03:35:53.087Z,-1.90
2022-11-27T03:38:20.139Z,-1.90
2022-11-27T03:41:00.451Z,-1.90
2022-11-27T03:43:35.233Z,-2.00
2022-11-27T03:46:11.235Z,-2.10
2022-11-27T03:48:59.292Z,-2.20
2022-11-27T03:51:41.115Z,-2.30
2022-11-27T03:54:32.827Z,-2.20
2022-11-27T03:57:13.132Z,-2.20
2022-11-27T03:59:43.402Z,-2.30
2022-11-27T04:02:15.232Z,-2.30
2022-11-27T04:04:42.447Z,-2.20
2022-11-27T04:07:17.107Z,-2.10
2022-11-27T04:09:44.195Z,-2.10
2022-11-27T04:12:11.184Z,-2.10
2022-11-27T04:14:38.522Z,-2.20
2022-11-27T04:17:05.770Z,-2.20
2022-11-27T04:19:32.908Z,-2.30
2022-11-27T04:21:59.870Z,-2.30
2022-11-27T04:24:26.807Z,-2.40
2022-11-27T04:26:53.769Z,-2.30
2022-11-27T04:29:20.752Z,-2.40
2022-11-27T04:31:47.729Z,-2.60
2022-11-27T04:34:14.713Z,-2.70
2022-11-27T04:36:42.583Z,-2.70
2022-11-27T04:39:09.677Z,-2.80
2022-11-27T04:41:36.642Z,-2.80
2022-11-27T04:44:03.726Z,-2.80
2022-11-27T04:46:30.784Z,-2.70
2022-11-27T04:48:57.919Z,-2.80
2022-11-27T04:51:24.905Z,-2.80
2022-11-27T04:53:51.891Z,-2.80
2022-11-27T04:56:18.879Z,-2.80
2022-11-27T04:58:45.803Z,-2.70
2022-11-27T05:01:12.841Z,-2.70
2022-11-27T05:03:39.937Z,-2.80
2022-11-27T05:06:06.990Z,-2.70
2022-11-27T05:08:34.919Z,-2.70
2022-11-27T05:11:14.140Z,-2.80
2022-11-27T05:13:41.389Z,-2.70
2022-11-27T05:16:08.682Z,-2.80
2022-11-27T05:18:35.963Z,-2.80
2022-11-27T05:21:06.441Z,-2.80
2022-11-27T05:23:34.105Z,-2.90
2022-11-27T05:26:01.173Z,-3.00
2022-11-27T05:28:28.124Z,-3.10
2022-11-27T05:30:55.127Z,-3.00
2022-11-27T05:33:22.309Z,-2.90
2022-11-27T05:35:49.368Z,-2.90
2022-11-27T05:38:16.370Z,-2.90
2022-11-27T05:40:43.385Z,-3.00
2022-11-27T05:43:10.403Z,-3.00
2022-11-27T05:45:38.034Z,-3.00
2022-11-27T05:48:05.181Z,-3.00
2022-11-27T05:50:32.150Z,-3.10
2022-11-27T05:52:59.447Z,-3.20
2022-11-27T05:55:26.828Z,-3.10
2022-11-27T05:57:53.872Z,-3.10
2022-11-27T06:00:21.090Z,-3.10
2022-11-27T06:02:48.142Z,-3.20
2022-11-27T06:05:15.231Z,-3.30
2022-11-27T06:07:42.243Z,-3.20
2022-11-27T06:10:09.640Z,-3.20
2022-11-27T06:12:36.642Z,-3.20
2022-11-27T06:15:04.191Z,-3.10
2022-11-27T06:17:31.194Z,-3.10
2022-11-27T06:19:58.336Z,-3.20
2022-11-27T06:22:25.301Z,-3.20
2022-11-27T06:24:52.233Z,-3.30
2022-11-27T06:27:19.349Z,-3.20
2022-11-27T06:29:46.295Z,-3.20
2022-11-27T06:32:13.329Z,-3.10
2022-11-27T06:34:40.615Z,-3.00
2022-11-27T06:37:12.863Z,-2.90
2022-11-27T06:39:40.210Z,-2.90
2022-11-27T06:42:07.378Z,-2.90
2022-11-27T06:44:34.389Z,-3.00
2022-11-27T06:47:01.357Z,-3.10
2022-11-27T06:49:28.308Z,-3.20
2022-11-27T06:51:55.237Z,-3.20
2022-11-27T06:54:22.314Z,-3.20
2022-11-27T06:56:50.685Z,-3.20
2022-11-27T06:59:18.391Z,-3.10
2022-11-27T07:01:46.120Z,-3.10
2022-11-27T07:04:15.257Z,-3.20
2022-11-27T07:06:43.039Z,-3.30
2022-11-27T07:09:10.587Z,-3.40
2022-11-27T07:11:39.576Z,-3.40
2022-11-27T07:14:07.067Z,-3.40
2022-11-27T07:16:36.478Z,-3.40
2022-11-27T07:19:08.235Z,-3.50
2022-11-27T07:21:38.201Z,-3.40
2022-11-27T07:24:05.598Z,-3.30
2022-11-27T07:26:32.876Z,-3.20
2022-11-27T07:28:59.953Z,-3.30
2022-11-27T07:31:29.227Z,-3.40
2022-11-27T07:33:57.269Z,-3.30
2022-11-27T07:36:30.285Z,-3.20
2022-11-27T07:38:58.263Z,-3.00
2022-11-27T07:41:30.557Z,-3.00
2022-11-27T07:43:59.369Z,-2.80
2022-11-27T07:46:26.344Z,-2.80
2022-11-27T07:48:53.338Z,-2.90
2022-11-27T07:51:21.656Z,-2.90
2022-11-27T07:53:51.693Z,-2.90
2022-11-27T07:56:18.982Z,-2.80
2022-11-27T07:58:46.275Z,-2.70
2022-11-27T08:01:18.170Z,-2.60
2022-11-27T08:03:45.670Z,-2.50
2022-11-27T08:06:18.213Z,-2.50
2022-11-27T08:08:45.256Z,-2.50
2022-11-27T08:11:21.178Z,-2.50
2022-11-27T08:13:50.802Z,-2.50
2022-11-27T08:16:17.976Z,-2.50
2022-11-27T08:18:44.988Z,-2.40
2022-11-27T08:21:12.117Z,-2.40
2022-11-27T08:23:39.080Z,-2.30
2022-11-27T08:26:08.455Z,-2.20
2022-11-27T08:28:35.857Z,-2.20
2022-11-27T08:31:05.195Z,-2.10
2022-11-27T08:33:32.531Z,-2.00
2022-11-27T08:36:00.003Z,-2.00
2022-11-27T08:38:27.000Z,-2.10
2022-11-27T08:41:05.603Z,-2.00
2022-11-27T08:43:34.503Z,-1.90
2022-11-27T08:46:04.985Z,-1.80
2022-11-27T08:48:32.107Z,-1.70
2022-11-27T08:50:59.092Z,-1.60
2022-11-27T08:53:26.482Z,-1.60
2022-11-27T08:55:53.401Z,-1.60
2022-11-27T08:58:20.369Z,-1.60
2022-11-27T09:00:47.316Z,-1.70
2022-11-27T09:03:14.286Z,-1.70
2022-11-27T09:05:44.878Z,-1.70
2022-11-27T09:08:16.448Z,-1.60
2022-11-27T09:10:43.399Z,-1.60
2022-11-27T09:13:10.419Z,-1.50
2022-11-27T09:15:37.650Z,-1.60
2022-11-27T09:18:04.725Z,-1.60
2022-11-27T09:20:31.705Z,-1.60
2022-11-27T09:23:02.455Z,-1.70
2022-11-27T09:25:29.801Z,-1.80
2022-11-27T09:27:56.794Z,-1.80
2022-11-27T09:30:23.733Z,-1.90
2022-11-27T09:32:51.923Z,-1.80
2022-11-27T09:35:18.956Z,-1.70
2022-11-27T09:37:46.143Z,-1.60
2022-11-27T09:40:17.661Z,-1.70
2022-11-27T09:42:53.906Z,-1.60
2022-11-27T09:45:24.195Z,-1.60
2022-11-27T09:47:58.717Z,-1.70
2022-11-27T09:50:50.434Z,-1.80
2022-11-27T09:53:31.473Z,-1.80
2022-11-27T09:56:03.626Z,-1.70
2022-11-27T09:58:40.441Z,-1.70
2022-11-27T10:01:16.238Z,-1.60
2022-11-27T10:03:45.238Z,-1.60
2022-11-27T10:06:37.887Z,-1.60
2022-11-27T10:09:36.995Z,-1.60
2022-11-27T10:12:30.189Z,-1.50
2022-11-27T10:15:40.801Z,-1.40
2022-11-27T10:18:16.897Z,-1.40
2022-11-27T10:20:47.559Z,-1.30
2022-11-27T10:24:04.069Z,-1.20
2022-11-27T10:26:44.347Z,-1.10
2022-11-27T10:29:20.147Z,-1.00
2022-11-27T10:31:54.761Z,-0.90
2022-11-27T10:34:30.904Z,-0.80
2022-11-27T10:37:01.296Z,-0.80
2022-11-27T10:39:41.326Z,-0.80
2022-11-27T10:42:27.853Z,-0.80
2022-11-27T10:45:08.458Z,-0.80
2022-11-27T10:47:40.487Z,-0.80
2022-11-27T10:50:17.800Z,-0.70
2022-11-27T10:52:53.857Z,-0.80
2022-11-27T10:55:54.615Z,-0.70
2022-11-27T10:58:33.729Z,-0.70
2022-11-27T11:01:07.054Z,-0.70
2022-11-27T11:03:34.533Z,-0.60
2022-11-27T11:06:23.617Z,-0.60
2022-11-27T11:09:15.952Z,-0.60
2022-11-27T11:11:42.955Z,-0.50
2022-11-27T11:14:27.049Z,-0.60
2022-11-27T11:16:55.284Z,-0.60
2022-11-27T11:19:33.376Z,-0.50
2022-11-27T11:22:08.096Z,-0.50
2022-11-27T11:24:43.780Z,-0.50
2022-11-27T11:27:32.330Z,-0.50
2022-11-27T11:30:06.215Z,-0.40
2022-11-27T11:32:36.302Z,-0.30
2022-11-27T11:35:10.303Z,-0.30
2022-11-27T11:37:41.880Z,-0.20
2022-11-27T11:40:31.601Z,-0.10
2022-11-27T11:43:01.618Z,-0.20
2022-11-27T11:45:33.815Z,-0.10
2022-11-27T11:48:23.001Z,-0.10
2022-11-27T11:51:00.046Z,0.00
2022-11-27T11:54:07.897Z,0.10
2022-11-27T11:56:40.591Z,0.10
2022-11-27T11:59:45.198Z,0.20
2022-11-27T12:02:30.473Z,0.30
2022-11-27T12:05:30.879Z,0.30
2022-11-27T12:08:15.830Z,0.40
2022-11-27T12:10:55.096Z,0.40
2022-11-27T12:13:38.850Z,0.50
2022-11-27T12:16:24.293Z,0.40
2022-11-27T12:19:10.306Z,0.30
2022-11-27T12:21:43.428Z,0.40
2022-11-27T12:24:38.831Z,0.40
2022-11-27T12:27:44.582Z,0.40
2022-11-27T12:30:56.016Z,0.50
2022-11-27T12:33:56.613Z,0.60
2022-11-27T12:36:54.898Z,0.80
2022-11-27T12:39:41.094Z,0.80
2022-11-27T12:42:40.165Z,0.90
2022-11-27T12:45:15.090Z,0.90
2022-11-27T12:48:08.389Z,1.00
2022-11-27T12:50:51.608Z,1.00
2022-11-27T12:53:45.918Z,1.10
2022-11-27T12:56:21.105Z,1.10
2022-11-27T12:59:04.736Z,1.00
2022-11-27T13:01:41.319Z,1.00
2022-11-27T13:04:30.081Z,0.90
2022-11-27T13:07:10.522Z,0.90
2022-11-27T13:10:17.251Z,0.80
2022-11-27T13:13:00.580Z,0.80
2022-11-27T13:15:38.753Z,0.70
2022-11-27T13:18:30.042Z,0.60
2022-11-27T13:21:01.641Z,0.60
2022-11-27T13:23:32.989Z,0.60
2022-11-27T13:26:04.597Z,0.50
2022-11-27T13:28:41.022Z,0.50
2022-11-27T13:31:09.793Z,0.40
2022-11-27T13:33:41.189Z,0.40
2022-11-27T13:36:20.097Z,0.50
2022-11-27T13:38:57.719Z,0.40
2022-11-27T13:41:39.957Z,0.40
2022-11-27T13:44:28.680Z,0.30
2022-11-27T13:47:04.993Z,0.30
2022-11-27T13:49:34.004Z,0.30
2022-11-27T13:52:20.237Z,0.30
2022-11-27T13:55:06.307Z,0.20
2022-11-27T13:57:34.536Z,0.10
2022-11-27T14:00:08.346Z,0.10
2022-11-27T14:02:44.710Z,0.10
2022-11-27T14:05:13.432Z,0.00
2022-11-27T14:07:47.657Z,-0.10
2022-11-27T14:10:26.922Z,-0.20
2022-11-27T14:12:58.329Z,-0.30
2022-11-27T14:15:27.185Z,-0.40
2022-11-27T14:18:04.997Z,-0.50
2022-11-27T14:20:35.350Z,-0.70
2022-11-27T14:23:17.518Z,-0.70
2022-11-27T14:25:44.538Z,-0.70
2022-11-27T14:28:27.699Z,-0.60
2022-11-27T14:30:57.414Z,-0.50
2022-11-27T14:33:25.802Z,-0.50
2022-11-27T14:35:58.390Z,-0.50
2022-11-27T14:38:27.107Z,-0.50
2022-11-27T14:41:07.326Z,-0.50
2022-11-27T14:43:34.294Z,-0.50
2022-11-27T14:46:03.008Z,-0.50
2022-11-27T14:48:57.640Z,-0.50
2022-11-27T14:51:29.734Z,-0.40
2022-11-27T14:54:12.187Z,-0.40
2022-11-27T14:56:43.390Z,-0.40
2022-11-27T14:59:19.973Z,-0.40
2022-11-27T15:02:00.239Z,-0.40
2022-11-27T15:04:35.602Z,-0.40
2022-11-27T15:07:06.605Z,-0.40
2022-11-27T15:09:35.902Z,-0.40
2022-11-27T15:12:26.234Z,-0.40
2022-11-27T15:14:58.459Z,-0.30
2022-11-27T15:17:34.693Z,-0.30
2022-11-27T15:20:10.172Z,-0.30
2022-11-27T15:22:38.448Z,-0.30
2022-11-27T15:25:28.032Z,-0.30
2022-11-27T15:27:55.004Z,-0.30
2022-11-27T15:30:22.219Z,-0.20
2022-11-27T15:32:51.720Z,-0.10
2022-11-27T15:35:28.314Z,-0.10
2022-11-27T15:37:57.431Z,-0.10
2022-11-27T15:40:28.990Z,-0.10
2022-11-27T15:42:56.143Z,0.00
2022-11-27T15:45:23.823Z,0.00
2022-11-27T15:47:59.408Z,0.00
2022-11-27T15:50:27.072Z,0.00
2022-11-27T15:52:54.123Z,-0.10
2022-11-27T15:55:21.900Z,-0.10
2022-11-27T15:57:48.954Z,0.00
2022-11-27T16:00:16.431Z,0.00
2022-11-27T16:02:43.453Z,0.00
2022-11-27T16:05:10.625Z,-0.10
2022-11-27T16:07:37.719Z,-0.10
2022-11-27T16:10:05.588Z,-0.10
2022-11-27T16:12:32.533Z,-0.10
2022-11-27T16:14:59.607Z,0.00
2022-11-27T16:17:26.582Z,0.10
2022-11-27T16:19:53.599Z,0.10
2022-11-27T16:22:20.646Z,0.20
2022-11-27T16:24:47.583Z,0.20
2022-11-27T16:27:14.550Z,0.10
2022-11-27T16:29:41.586Z,0.20
2022-11-27T16:32:08.634Z,0.20
2022-11-27T16:34:36.341Z,0.20
2022-11-27T16:37:03.316Z,0.20
2022-11-27T16:39:30.237Z,0.20
2022-11-27T16:41:57.170Z,0.30
2022-11-27T16:44:24.144Z,0.30
2022-11-27T16:46:51.366Z,0.30
2022-11-27T16:49:18.392Z,0.40
2022-11-27T16:51:45.498Z,0.50
2022-11-27T16:54:13.790Z,0.40
2022-11-27T16:56:40.808Z,0.40
2022-11-27T16:59:10.569Z,0.40
2022-11-27T17:01:38.118Z,0.40
2022-11-27T17:04:09.034Z,0.30
2022-11-27T17:06:38.525Z,0.30
2022-11-27T17:09:07.889Z,0.40
2022-11-27T17:11:37.967Z,0.40
2022-11-27T17:14:07.629Z,0.40
2022-11-27T17:16:38.841Z,0.40
2022-11-27T17:19:05.988Z,0.40
2022-11-27T17:21:35.450Z,0.40
2022-11-27T17:24:13.161Z,0.40
2022-11-27T17:26:44.490Z,0.40
2022-11-27T17:29:13.557Z,0.40
2022-11-27T17:31:41.030Z,0.50
2022-11-27T17:34:10.973Z,0.60
2022-11-27T17:36:38.843Z,0.60
2022-11-27T17:39:06.519Z,0.60
2022-11-27T17:41:34.758Z,0.60
2022-11-27T17:44:05.448Z,0.60
2022-11-27T17:46:33.191Z,0.60
2022-11-27T17:49:01.826Z,0.60
2022-11-27T17:51:31.519Z,0.70
2022-11-27T17:54:02.662Z,0.60
2022-11-27T17:56:30.434Z,0.60
2022-11-27T17:58:57.436Z,0.60
2022-11-27T18:01:28.451Z,0.60
2022-11-27T18:03:56.870Z,0.60
2022-11-27T18:06:23.916Z,0.60
2022-11-27T18:08:50.949Z,0.60
2022-11-27T18:11:22.068Z,0.50
2022-11-27T18:13:50.053Z,0.50
2022-11-27T18:16:31.759Z,0.50
2022-11-27T18:19:00.357Z,0.50
2022-11-27T18:21:28.684Z,0.50
2022-11-27T18:27:07.334Z,0.40
2022-11-27T18:29:30.293Z,0.50
2022-11-27T18:31:57.331Z,0.50
2022-11-27T18:34:24.369Z,0.50
2022-11-27T18:36:51.288Z,0.40
2022-11-27T18:39:18.639Z,0.40
2022-11-27T18:41:45.578Z,0.50
2022-11-27T18:44:12.553Z,0.50
2022-11-27T18:46:39.520Z,0.60
2022-11-27T18:49:06.692Z,0.50
2022-11-27T18:51:33.641Z,0.50
2022-11-27T18:54:00.931Z,0.50
2022-11-27T18:56:33.131Z,0.50
2022-11-27T18:59:05.033Z,0.50
2022-11-27T19:01:39.553Z,0.50
2022-11-27T19:04:08.723Z,0.50
2022-11-27T19:06:37.062Z,0.50
2022-11-27T19:09:05.194Z,0.50
2022-11-27T19:11:33.032Z,0.50
2022-11-27T19:14:00.041Z,0.40
2022-11-27T19:16:31.382Z,0.40
2022-11-27T19:18:59.700Z,0.40
2022-11-27T19:21:29.407Z,0.50
2022-11-27T19:23:58.490Z,0.50
2022-11-27T19:26:31.705Z,0.50
2022-11-27T19:29:01.686Z,0.50
2022-11-27T19:31:30.733Z,0.50
2022-11-27T19:33:59.760Z,0.50
2022-11-27T19:36:28.581Z,0.50
2022-11-27T19:38:58.675Z,0.40
2022-11-27T19:41:26.283Z,0.50
2022-11-27T19:43:53.819Z,0.50
2022-11-27T19:46:25.462Z,0.40
2022-11-27T19:48:56.843Z,0.50
2022-11-27T19:51:25.158Z,0.50
2022-11-27T19:53:52.209Z,0.50
2022-11-27T19:56:19.450Z,0.40
2022-11-27T19:58:46.431Z,0.40
2022-11-27T20:01:16.215Z,0.40
2022-11-27T20:03:43.933Z,0.40
2022-11-27T20:06:16.236Z,0.40
2022-11-27T20:08:45.274Z,0.40
2022-11-27T20:11:15.006Z,0.40
2022-11-27T20:13:42.710Z,0.40
2022-11-27T20:16:12.177Z,0.50
2022-11-27T20:18:39.638Z,0.40
2022-11-27T20:21:17.034Z,0.40
2022-11-27T20:23:45.523Z,0.40
2022-11-27T20:26:25.715Z,0.30
2022-11-27T20:28:53.913Z,0.30
2022-11-27T20:31:25.083Z,0.20
2022-11-27T20:33:53.717Z,0.20
2022-11-27T20:36:22.541Z,0.20
2022-11-27T20:38:50.659Z,0.20
2022-11-27T20:41:19.709Z,0.20
2022-11-27T20:43:47.109Z,0.20
2022-11-27T20:46:18.350Z,0.20
2022-11-27T20:48:46.771Z,0.10
2022-11-27T20:51:16.807Z,0.20
2022-11-27T20:53:45.646Z,0.20
2022-11-27T20:56:14.510Z,0.20
2022-11-27T20:58:43.044Z,0.20
2022-11-27T21:01:34.407Z,0.20
2022-11-27T21:04:04.504Z,0.30
2022-11-27T21:06:33.009Z,0.20
2022-11-27T21:09:01.749Z,0.30
2022-11-27T21:11:30.801Z,0.30
2022-11-27T21:13:59.247Z,0.30
2022-11-27T21:16:28.569Z,0.20
2022-11-27T21:19:04.451Z,0.20
2022-11-27T21:21:31.573Z,0.20
2022-11-27T21:23:59.140Z,0.20
2022-11-27T21:26:26.367Z,0.20
2022-11-27T21:28:53.382Z,0.20
2022-11-27T21:31:25.964Z,0.10
2022-11-27T21:33:55.547Z,0.10
2022-11-27T21:36:24.945Z,0.10
2022-11-27T21:38:51.918Z,0.20
2022-11-27T21:41:20.201Z,0.20
2022-11-27T21:43:48.648Z,0.20
2022-11-27T21:46:18.909Z,0.20
2022-11-27T21:48:47.861Z,0.20
2022-11-27T21:51:15.528Z,0.20
2022-11-27T21:53:43.952Z,0.20
2022-11-27T21:56:14.632Z,0.20
2022-11-27T21:58:42.214Z,0.30
2022-11-27T22:01:15.032Z,0.30
2022-11-27T22:03:43.069Z,0.30
2022-11-27T22:06:15.349Z,0.30
2022-11-27T22:08:44.762Z,0.30
2022-11-27T22:11:15.539Z,0.20
2022-11-27T22:13:43.357Z,0.30
2022-11-27T22:16:21.949Z,0.30
2022-11-27T22:18:49.800Z,0.30
2022-11-27T22:21:17.658Z,0.30
2022-11-27T22:23:45.034Z,0.30
2022-11-27T22:26:20.390Z,0.30
2022-11-27T22:28:48.075Z,0.30
2022-11-27T22:31:17.876Z,0.30
2022-11-27T22:33:45.793Z,0.20
2022-11-27T22:36:30.516Z,0.10
2022-11-27T22:38:58.581Z,0.10
2022-11-27T22:41:28.861Z,0.20
2022-11-27T22:43:56.594Z,0.10
2022-11-27T22:46:27.021Z,0.10
2022-11-27T22:48:58.677Z,0.20
2022-11-27T22:51:27.553Z,0.20
2022-11-27T22:53:54.893Z,0.30
2022-11-27T22:56:22.379Z,0.20
2022-11-27T22:58:52.867Z,0.20
2022-11-27T23:01:29.684Z,0.20
2022-11-27T23:04:00.077Z,0.20
2022-11-27T23:06:27.114Z,0.10
2022-11-27T23:08:54.869Z,0.10
2022-11-27T23:11:24.672Z,0.10
2022-11-27T23:13:53.819Z,0.10
2022-11-27T23:16:21.523Z,0.20
2022-11-27T23:18:50.790Z,0.20
2022-11-27T23:21:20.428Z,0.20
2022-11-27T23:23:48.029Z,0.20
2022-11-27T23:26:21.213Z,0.10
2022-11-27T23:28:50.489Z,0.10
2022-11-27T23:31:31.274Z,0.10
2022-11-27T23:34:03.311Z,0.10
2022-11-27T23:36:31.478Z,0.20
2022-11-27T23:39:03.401Z,0.20
2022-11-27T23:41:31.124Z,0.30
2022-11-27T23:43:58.186Z,0.30
2022-11-27T23:46:27.938Z,0.30
2022-11-27T23:48:56.563Z,0.30
2022-11-27T23:51:28.794Z,0.30
2022-11-27T23:53:56.360Z,0.30
2022-11-27T23:56:25.867Z,0.40
2022-11-27T23:58:54.884Z,0.40
